Cusseta, Alabama
Current Conditions -  °F | °C
As of 4:35 AM on Thursday 29 Jan 2015 (Local Time) from KAUO Reporting Station
Clear Clear  
Wind Chill: 37°   Ceiling: Unl
Heat Index: 37°   Visibility: 10mi
Dew Point: 27°   Wind: 0mph
Humidity: 65%   Direction: NA
Pressure: 30.31"   Gusts: NA
Location:  32.79°N, 85.31°W
Report Text: KAUO 291035Z AUTO 00000KT 10SM CLR 03/M03 A3031 RMK AO1
Loading
Personal Weather Stations






























Interactive Weather Map New forecast layout! Learn more

10-Day Weather Forecast

Advertisements
Track Severe Weather on mobile